Time;durP1;ratioP1;P1;durP2;ratioP2;P2;SDS_P1;SDS_P2;PMS_P1;PMS_P2;Temp;Humidity;BMP_temperature;BMP_pressure;BME280_temperature;BME280_humidity;BME280_pressure;Samples;Min_cycle;Max_cycle;Signal;HPM_P1;HPM_P2
2022/11/15 00:00:54;;;;;;;118.50;74.95;;;204.90;2252.80;;;;;;5055915;28;20779;-85
2022/11/15 00:03:22;;;;;;;118.80;75.88;;;205.00;2252.80;;;;;;5039817;28;20044;-85
2022/11/15 00:05:48;;;;;;;111.45;70.85;;;205.10;2252.80;;;;;;5057931;28;20502;-84
2022/11/15 00:08:14;;;;;;;119.40;72.07;;;205.00;2252.80;;;;;;5039990;28;20391;-87
2022/11/15 00:10:40;;;;;;;158.38;93.25;;;205.10;2252.80;;;;;;5055076;28;20028;-85
2022/11/15 00:13:12;;;;;;;154.82;95.63;;;204.80;2252.80;;;;;;5043284;28;20025;-84
2022/11/15 00:15:38;;;;;;;146.02;89.90;;;205.00;2252.80;;;;;;5059321;28;20472;-84
2022/11/15 00:18:10;;;;;;;152.45;96.38;;;205.00;2252.80;;;;;;5059493;28;20453;-84
2022/11/15 00:20:36;;;;;;;129.30;80.80;;;205.20;2252.80;;;;;;5059677;28;20052;-86
2022/11/15 00:23:04;;;;;;;110.32;70.10;;;205.10;2252.80;;;;;;5060005;28;20472;-84
2022/11/15 00:25:30;;;;;;;121.75;77.93;;;205.10;2252.80;;;;;;5059845;28;20052;-85
2022/11/15 00:28:00;;;;;;;192.55;119.97;;;204.80;2252.80;;;;;;5059964;28;20082;-82
2022/11/15 00:30:26;;;;;;;341.77;225.55;;;204.80;2252.80;;;;;;5059488;28;20036;-86
2022/11/15 00:32:52;;;;;;;124.78;81.82;;;204.90;2252.80;;;;;;5060244;28;20025;-84
2022/11/15 00:35:19;;;;;;;117.55;77.18;;;180.10;2252.80;;;;;;5059659;28;20102;-84
2022/11/15 00:37:44;;;;;;;103.47;66.43;;;204.80;2252.80;;;;;;5059690;28;20039;-82
2022/11/15 00:40:12;;;;;;;94.45;62.17;;;180.00;2252.80;;;;;;5059473;28;20036;-84
2022/11/15 00:42:38;;;;;;;95.32;60.05;;;180.10;2252.80;;;;;;5059563;28;20031;-85
2022/11/15 00:45:04;;;;;;;90.88;57.80;;;179.80;2252.80;;;;;;5059422;28;20021;-84
2022/11/15 00:47:30;;;;;;;95.25;57.55;;;179.90;2252.80;;;;;;5075588;28;20012;-83
2022/11/15 00:49:56;;;;;;;89.30;54.92;;;179.60;2252.80;;;;;;5082350;28;20035;-84
2022/11/15 00:52:22;;;;;;;93.90;58.30;;;179.80;2252.80;;;;;;5083616;28;20013;-83
2022/11/15 00:54:48;;;;;;;105.70;61.08;;;179.90;2252.80;;;;;;5060216;28;20024;-83
2022/11/15 00:57:14;;;;;;;87.65;49.80;;;179.70;2252.80;;;;;;5059299;28;20043;-83
2022/11/15 00:59:39;;;;;;;83.75;51.67;;;179.70;2252.80;;;;;;5059367;28;20028;-83
2022/11/15 01:02:05;;;;;;;79.82;46.70;;;179.60;2252.80;;;;;;5077660;28;20143;-83
2022/11/15 01:04:31;;;;;;;80.13;50.20;;;179.70;2252.80;;;;;;5070414;28;20050;-83
2022/11/15 01:06:57;;;;;;;92.25;56.13;;;179.70;2252.80;;;;;;5097482;28;20097;-84
2022/11/15 01:09:23;;;;;;;84.40;50.50;;;179.60;2252.80;;;;;;5096137;28;20031;-83
2022/11/15 01:11:48;;;;;;;79.35;50.05;;;179.70;2252.80;;;;;;5095829;28;20068;-83
2022/11/15 01:14:14;;;;;;;84.22;47.97;;;179.70;2252.80;;;;;;5098853;28;20024;-83
2022/11/15 01:16:40;;;;;;;80.57;49.67;;;179.70;2252.80;;;;;;5100942;28;20050;-83
2022/11/15 01:19:06;;;;;;;78.95;46.58;;;179.60;2252.80;;;;;;5095370;28;20464;-84
2022/11/15 01:21:32;;;;;;;75.07;44.35;;;179.40;2252.80;;;;;;5095476;28;20048;-84
2022/11/15 01:23:58;;;;;;;72.22;45.30;;;;;;;;;;5095511;28;20119;-83
2022/11/15 01:26:25;;;;;;;73.00;43.10;;;;;;;;;;5096610;28;20099;-85
2022/11/15 01:28:51;;;;;;;68.72;41.65;;;;;;;;;;5096669;28;20027;-83
2022/11/15 01:31:18;;;;;;;66.95;43.33;;;;;;;;;;5096773;28;20031;-86
2022/11/15 01:33:45;;;;;;;81.35;47.72;;;;;;;;;;5095460;28;20387;-83
2022/11/15 01:36:15;;;;;;;80.13;44.35;;;;;;;;;;5095260;28;20024;-85
2022/11/15 01:38:42;;;;;;;79.90;43.83;;;;;;;;;;5097160;28;20028;-84
2022/11/15 01:41:14;;;;;;;79.30;45.63;;;;;;;;;;5096193;28;20031;-83
2022/11/15 01:43:40;;;;;;;86.13;49.95;;;;;;;;;;5095160;28;20513;-82
2022/11/15 01:46:35;;;;;;;84.20;46.22;;;179.50;2252.80;;;;;;5096490;28;20020;-83
2022/11/15 01:49:11;;;;;;;77.85;43.92;;;179.40;2252.80;;;;;;5095163;28;20032;-84
2022/11/15 01:51:38;;;;;;;75.65;42.08;;;;;;;;;;5095131;28;20024;-83
2022/11/15 01:54:08;;;;;;;75.65;40.92;;;154.30;2252.80;;;;;;5095677;28;20020;-83
2022/11/15 01:56:39;;;;;;;81.00;44.38;;;154.40;2252.80;;;;;;5095087;28;20028;-83
2022/11/15 01:59:07;;;;;;;76.35;47.58;;;154.40;2252.80;;;;;;5094956;28;20031;-81
2022/11/15 02:01:33;;;;;;;76.95;45.65;;;154.50;2252.80;;;;;;5094764;28;20024;-83
2022/11/15 02:04:06;;;;;;;73.63;41.53;;;154.50;2252.80;;;;;;5091532;28;20026;-81
2022/11/15 02:06:32;;;;;;;78.15;44.40;;;154.50;2252.80;;;;;;5075788;28;20052;-82
2022/11/15 02:09:00;;;;;;;66.18;40.17;;;154.20;2252.80;;;;;;5057844;28;20081;-82
2022/11/15 02:11:26;;;;;;;73.38;44.00;;;154.50;2252.80;;;;;;5057651;28;20464;-82
2022/11/15 02:13:52;;;;;;;69.55;40.25;;;154.50;2252.80;;;;;;5051739;28;20089;-83
2022/11/15 02:16:39;;;;;;;73.28;40.50;;;154.00;2252.80;;;;;;5037785;28;20032;-82
2022/11/15 02:19:32;;;;;;;89.50;49.15;;;154.00;2252.80;;;;;;5036951;28;20063;-82
2022/11/15 02:22:45;;;;;;;83.90;42.50;;;154.10;2252.80;;;;;;5037465;28;20116;-82
2022/11/15 02:25:29;;;;;;;72.53;40.90;;;154.10;2252.80;;;;;;5037577;28;20036;-82
2022/11/15 02:28:17;;;;;;;70.97;39.72;;;153.70;2252.80;;;;;;5037468;28;20065;-83
2022/11/15 02:31:05;;;;;;;76.95;38.47;;;154.00;2252.80;;;;;;5037328;28;20040;-83
2022/11/15 02:34:11;;;;;;;75.70;39.85;;;154.00;2252.80;;;;;;5037491;28;20460;-82
2022/11/15 02:37:01;;;;;;;71.75;42.60;;;153.60;2252.80;;;;;;5046931;28;20028;-80
2022/11/15 02:39:36;;;;;;;70.38;37.42;;;;;;;;;;5075604;28;20104;-82
2022/11/15 02:43:56;;;;;;;65.35;35.38;;;;;;;;;;5056777;28;20055;-82
2022/11/15 02:44:57;;;;;;;70.70;37.67;;;;;;;;;;5070301;28;20396;-83
2022/11/15 02:47:27;;;;;;;60.28;34.60;;;154.10;2252.80;;;;;;5056991;28;20041;-83
2022/11/15 02:49:56;;;;;;;57.17;34.85;;;153.90;2252.80;;;;;;5056296;28;20536;-82
2022/11/15 02:52:25;;;;;;;61.40;34.53;;;;;;;;;;5056980;28;20047;-83
2022/11/15 02:54:58;;;;;;;63.95;37.03;;;;;;;;;;5057204;28;20086;-82
2022/11/15 02:57:36;;;;;;;66.85;36.80;;;;;;;;;;5057014;28;20425;-83
2022/11/15 03:00:03;;;;;;;62.00;34.80;;;;;;;;;;5056525;28;20036;-80
2022/11/15 03:02:32;;;;;;;63.70;37.33;;;;;;;;;;5075068;28;20013;-83
2022/11/15 03:05:35;;;;;;;60.13;34.65;;;153.60;2252.80;;;;;;5074860;28;20091;-82
2022/11/15 03:08:29;;;;;;;54.38;33.95;;;128.80;2252.80;;;;;;5093728;28;20078;-82
2022/11/15 03:11:09;;;;;;;59.88;34.17;;;128.80;2252.80;;;;;;5046842;28;20066;-82
2022/11/15 03:13:43;;;;;;;63.90;38.95;;;128.60;2252.80;;;;;;5093516;28;20040;-81
2022/11/15 03:16:14;;;;;;;60.10;33.42;;;128.80;2252.80;;;;;;5093522;28;20043;-81
2022/11/15 03:18:45;;;;;;;64.82;33.45;;;153.60;2252.80;;;;;;5094662;28;20028;-81
2022/11/15 03:21:14;;;;;;;60.28;34.60;;;153.80;2252.80;;;;;;5093190;28;20388;-81
2022/11/15 03:23:41;;;;;;;57.53;33.70;;;128.90;2252.80;;;;;;5094735;28;20111;-80
2022/11/15 03:26:13;;;;;;;57.85;30.63;;;128.90;2252.80;;;;;;5093379;28;20036;-79
2022/11/15 03:28:49;;;;;;;58.72;31.95;;;128.70;2252.80;;;;;;5092933;28;20027;-80
2022/11/15 03:34:03;;;;;;;63.42;36.15;;;;;;;;;;5094339;28;20080;-80
2022/11/15 03:36:29;;;;;;;66.55;35.33;;;;;;;;;;5093208;28;20111;-82
2022/11/15 03:38:58;;;;;;;69.43;37.67;;;;;;;;;;5093281;28;20137;-80
2022/11/15 03:41:28;;;;;;;71.35;36.13;;;;;;;;;;5093060;28;20119;-82
2022/11/15 03:44:00;;;;;;;71.28;38.17;;;;;;;;;;5093149;28;20024;-81
2022/11/15 03:46:34;;;;;;;72.20;37.40;;;;;;;;;;5092919;28;20360;-81
2022/11/15 03:49:15;;;;;;;72.25;36.83;;;;;;;;;;5092682;28;20036;-81
2022/11/15 03:51:42;;;;;;;61.95;34.35;;;;;;;;;;5093118;28;20030;-81
2022/11/15 03:54:08;;;;;;;58.05;32.40;;;;;;;;;;5093001;28;20557;-81
2022/11/15 03:56:34;;;;;;;66.55;37.78;;;;;;;;;;5092916;28;20036;-82
2022/11/15 03:59:00;;;;;;;57.58;32.25;;;;;;;;;;5093031;28;20066;-82
2022/11/15 04:01:26;;;;;;;66.25;36.85;;;;;;;;;;5092921;28;20020;-81
2022/11/15 04:03:52;;;;;;;60.42;34.55;;;;;;;;;;5091009;28;20035;-81
2022/11/15 04:06:18;;;;;;;63.92;34.85;;;;;;;;;;5056142;28;20017;-81
2022/11/15 04:08:44;;;;;;;63.22;36.95;;;;;;;;;;5073860;28;20043;-83
2022/11/15 04:11:10;;;;;;;57.40;33.13;;;;;;;;;;5056204;28;20024;-81
2022/11/15 04:13:37;;;;;;;60.25;35.60;;;;;;;;;;5068652;28;20477;-81
2022/11/15 04:16:03;;;;;;;59.70;34.03;;;;;;;;;;5036256;28;20031;-81
2022/11/15 04:18:29;;;;;;;61.17;34.08;;;;;;;;;;5035313;28;20079;-81
2022/11/15 04:24:12;;;;;;;60.88;36.55;;;;;;;;;;4993708;28;20058;-81
2022/11/15 04:26:38;;;;;;;57.90;35.03;;;;;;;;;;4979730;28;20037;-81
2022/11/15 04:31:48;;;;;;;75.20;41.33;;;;;;;;;;5053795;28;20095;-81
2022/11/15 04:34:14;;;;;;;70.10;39.55;;;;;;;;;;5035721;28;20068;-80
2022/11/15 04:39:25;;;;;;;57.42;29.50;;;;;;;;;;5073773;28;20116;-82
2022/11/15 04:41:51;;;;;;;58.03;31.60;;;;;;;;;;5054622;28;20029;-81
2022/11/15 04:44:17;;;;;;;59.72;31.33;;;;;;;;;;5055583;28;20032;-80
2022/11/15 04:46:43;;;;;;;55.42;31.13;;;;;;;;;;5057908;28;20020;-81
2022/11/15 04:49:09;;;;;;;63.72;33.40;;;;;;;;;;5059196;28;20123;-81
2022/11/15 04:51:36;;;;;;;53.13;30.90;;;;;;;;;;5059617;28;20024;-82
2022/11/15 04:54:02;;;;;;;59.38;33.00;;;;;;;;;;5060186;28;20017;-81
2022/11/15 04:56:28;;;;;;;55.35;31.92;;;;;;;;;;5059236;28;20463;-82
2022/11/15 04:58:54;;;;;;;57.47;31.00;;;;;;;;;;5059145;28;20028;-81
2022/11/15 05:01:20;;;;;;;46.97;26.70;;;;;;;;;;5061373;28;20021;-81
2022/11/15 05:06:31;;;;;;;55.05;31.20;;;;;;;;;;5079720;28;20060;-81
2022/11/15 05:08:57;;;;;;;56.67;32.47;;;;;;;;;;5061393;28;20021;-81
2022/11/15 05:11:23;;;;;;;64.68;34.95;;;;;;;;;;5061218;28;20465;-80
2022/11/15 05:13:49;;;;;;;63.63;37.35;;;;;;;;;;5080226;28;20036;-80
2022/11/15 05:16:15;;;;;;;96.53;47.80;;;;;;;;;;5061974;28;20094;-82
2022/11/15 05:18:41;;;;;;;84.55;44.20;;;;;;;;;;5058774;28;20063;-81
2022/11/15 05:21:09;;;;;;;103.68;54.00;;;;;;;;;;5059029;28;20056;-81
2022/11/15 05:23:35;;;;;;;85.22;46.38;;;;;;;;;;5076453;28;20025;-82
2022/11/15 05:26:02;;;;;;;71.32;40.17;;;;;;;;;;5058543;28;20078;-80
2022/11/15 05:28:28;;;;;;;69.82;36.10;;;;;;;;;;5058558;28;20017;-81
2022/11/15 05:31:00;;;;;;;60.03;37.97;;;;;;;;;;5058613;28;20067;-83
2022/11/15 05:33:26;;;;;;;66.40;35.63;;;;;;;;;;5058352;28;20017;-81
2022/11/15 05:35:57;;;;;;;67.57;39.55;;;;;;;;;;5076452;28;20089;-81
2022/11/15 05:38:24;;;;;;;78.45;46.08;;;;;;;;;;5058520;28;20028;-82
2022/11/15 05:40:50;;;;;;;72.70;41.38;;;;;;;;;;5058215;28;20222;-81
2022/11/15 05:43:16;;;;;;;66.90;37.92;;;;;;;;;;5058531;28;20060;-83
2022/11/15 05:45:42;;;;;;;61.38;37.88;;;;;;;;;;5058418;28;20097;-80
2022/11/15 05:48:09;;;;;;;60.33;37.15;;;;;;;;;;5057913;28;20024;-81
2022/11/15 05:50:37;;;;;;;64.68;40.50;;;;;;;;;;5058390;28;20384;-81
2022/11/15 05:53:04;;;;;;;86.97;49.05;;;;;;;;;;5058148;28;20016;-81
2022/11/15 05:55:31;;;;;;;82.95;47.80;;;;;;;;;;5057936;28;20556;-79
2022/11/15 05:57:57;;;;;;;77.38;45.53;;;;;;;;;;5056816;28;20388;-81
2022/11/15 06:00:23;;;;;;;72.30;43.80;;;;;;;;;;5057677;28;20025;-80
2022/11/15 06:02:49;;;;;;;63.65;39.92;;;153.80;2252.80;;;;;;5057871;28;20036;-80
2022/11/15 06:05:15;;;;;;;60.72;34.53;;;;;;;;;;5075393;28;20048;-80
2022/11/15 06:07:41;;;;;;;56.17;36.03;;;;;;;;;;5075683;28;20095;-81
2022/11/15 06:10:07;;;;;;;59.83;36.97;;;153.90;2252.80;;;;;;5058009;28;20472;-80
2022/11/15 06:12:33;;;;;;;63.20;37.30;;;153.80;2252.80;;;;;;5057908;28;20472;-80
2022/11/15 06:14:59;;;;;;;60.42;35.95;;;153.80;2252.80;;;;;;5057692;28;20032;-82
2022/11/15 06:17:25;;;;;;;55.65;33.80;;;153.80;2252.80;;;;;;5057705;28;20027;-80
2022/11/15 06:19:50;;;;;;;58.25;33.63;;;153.80;2252.80;;;;;;5075811;28;20031;-82
2022/11/15 06:22:16;;;;;;;56.25;32.47;;;153.80;2252.80;;;;;;5057593;28;20078;-81
2022/11/15 06:24:43;;;;;;;60.45;34.90;;;153.80;2252.80;;;;;;5057336;28;20473;-81
2022/11/15 06:27:10;;;;;;;53.78;34.40;;;153.80;2252.80;;;;;;5057591;28;20025;-81
2022/11/15 06:29:36;;;;;;;64.50;37.47;;;153.80;2252.80;;;;;;5057099;28;20037;-81
2022/11/15 06:32:02;;;;;;;60.53;33.17;;;153.80;2252.80;;;;;;5057435;28;20027;-80
2022/11/15 06:34:28;;;;;;;67.57;34.47;;;153.80;2252.80;;;;;;5057374;28;20027;-81
2022/11/15 06:36:54;;;;;;;55.83;31.48;;;153.70;2252.80;;;;;;5057352;28;20115;-81
2022/11/15 06:39:20;;;;;;;63.55;35.70;;;153.80;2252.80;;;;;;5057246;28;20054;-80
2022/11/15 06:41:46;;;;;;;67.97;38.67;;;153.70;2252.80;;;;;;5057422;28;20119;-81
2022/11/15 06:44:11;;;;;;;64.38;39.03;;;153.80;2252.80;;;;;;5055920;28;20448;-80
2022/11/15 06:46:37;;;;;;;64.70;36.78;;;153.90;2252.80;;;;;;5042087;28;20090;-81
2022/11/15 06:49:03;;;;;;;53.92;33.67;;;;;;;;;;5056487;28;20040;-81
2022/11/15 06:51:29;;;;;;;57.20;34.08;;;154.00;2252.80;;;;;;5074598;28;20028;-81
2022/11/15 06:53:55;;;;;;;63.25;36.35;;;153.90;2252.80;;;;;;5057283;28;20025;-81
2022/11/15 06:56:21;;;;;;;59.72;37.95;;;153.80;2252.80;;;;;;5057343;28;20025;-79
2022/11/15 06:58:46;;;;;;;63.65;34.85;;;154.00;2252.80;;;;;;5057043;28;20115;-81
2022/11/15 07:01:13;;;;;;;56.20;33.75;;;;;;;;;;5057218;28;20032;-80
2022/11/15 07:03:41;;;;;;;62.92;35.35;;;154.20;2252.80;;;;;;5056871;28;20023;-81
2022/11/15 07:06:08;;;;;;;65.90;37.88;;;153.90;2252.80;;;;;;5073497;28;20040;-81
2022/11/15 07:08:35;;;;;;;56.67;34.10;;;154.30;2252.80;;;;;;5056348;28;20135;-81
2022/11/15 07:11:04;;;;;;;55.33;35.22;;;154.10;2252.80;;;;;;5056685;28;20028;-82
2022/11/15 07:13:32;;;;;;;62.03;37.60;;;154.10;2252.80;;;;;;5053561;28;20067;-82
2022/11/15 07:16:01;;;;;;;79.95;42.95;;;154.20;2252.80;;;;;;5036972;28;20112;-80
2022/11/15 07:18:27;;;;;;;56.85;35.38;;;154.10;2252.80;;;;;;5036284;28;20025;-80
2022/11/15 07:20:53;;;;;;;61.85;36.70;;;154.30;2252.80;;;;;;5054546;28;20124;-81
2022/11/15 07:23:18;;;;;;;59.47;36.30;;;154.50;2252.80;;;;;;5036641;28;20077;-81
2022/11/15 07:25:44;;;;;;;70.05;42.75;;;154.20;2252.80;;;;;;5036780;28;20029;-81
2022/11/15 07:28:10;;;;;;;73.95;44.88;;;154.00;2252.80;;;;;;5036979;28;20021;-82
2022/11/15 07:30:36;;;;;;;71.60;42.58;;;154.40;2252.80;;;;;;5036848;28;20080;-80
2022/11/15 07:33:02;;;;;;;70.30;41.47;;;154.40;2252.80;;;;;;5055010;28;20020;-81
2022/11/15 07:35:29;;;;;;;69.90;41.65;;;154.40;2252.80;;;;;;5038396;28;20025;-81
2022/11/15 07:37:56;;;;;;;79.05;48.97;;;154.50;2252.80;;;;;;5055451;28;20090;-81
2022/11/15 07:40:23;;;;;;;86.93;52.75;;;154.50;2252.80;;;;;;5054004;28;20052;-82
2022/11/15 07:42:55;;;;;;;88.00;54.00;;;154.40;2252.80;;;;;;5036349;28;20029;-82
2022/11/15 07:45:26;;;;;;;94.88;55.40;;;154.50;2252.80;;;;;;5042627;28;20032;-80
2022/11/15 07:47:52;;;;;;;92.32;58.50;;;179.20;2252.80;;;;;;5036239;28;20178;-83
2022/11/15 07:50:18;;;;;;;94.72;54.67;;;179.40;2252.80;;;;;;5035348;28;20033;-82
2022/11/15 07:52:45;;;;;;;83.40;49.90;;;179.60;2252.80;;;;;;5035814;28;20484;-82
2022/11/15 07:55:11;;;;;;;78.90;47.53;;;179.60;2252.80;;;;;;5036363;28;20025;-81
2022/11/15 07:57:37;;;;;;;73.88;48.35;;;180.00;2252.80;;;;;;5036180;28;20025;-81
2022/11/15 08:00:05;;;;;;;73.28;44.90;;;179.70;2252.80;;;;;;5036034;28;20506;-82
2022/11/15 08:02:30;;;;;;;65.32;40.53;;;179.70;2252.80;;;;;;5035985;28;20029;-81
2022/11/15 08:04:56;;;;;;;64.88;38.55;;;179.80;2252.80;;;;;;5053409;28;20052;-81
2022/11/15 08:07:22;;;;;;;66.05;41.42;;;180.10;2252.80;;;;;;5072583;28;20047;-81
2022/11/15 08:09:48;;;;;;;64.57;39.95;;;180.10;2252.80;;;;;;5072596;28;20491;-83
2022/11/15 08:12:14;;;;;;;62.08;41.00;;;204.80;2252.80;;;;;;5072698;28;20051;-82
2022/11/15 08:14:40;;;;;;;59.80;37.58;;;180.10;2252.80;;;;;;5072769;28;20115;-83
2022/11/15 08:17:06;;;;;;;65.82;42.58;;;204.80;2252.80;;;;;;5072764;28;20062;-82
2022/11/15 08:19:31;;;;;;;62.72;41.30;;;180.10;2252.80;;;;;;5072494;28;20036;-83
2022/11/15 08:21:58;;;;;;;68.38;40.45;;;204.80;2252.80;;;;;;5075102;28;20029;-84
2022/11/15 08:24:23;;;;;;;61.70;40.58;;;204.90;2252.80;;;;;;5076672;28;20028;-86
2022/11/15 08:26:49;;;;;;;54.53;38.63;;;204.90;2252.80;;;;;;5076678;28;20020;-85
2022/11/15 08:29:15;;;;;;;56.15;39.72;;;205.10;2252.80;;;;;;5076210;28;20032;-82
2022/11/15 08:31:41;;;;;;;112.00;67.55;;;205.10;2252.80;;;;;;5082616;28;20021;-80
2022/11/15 08:34:06;;;;;;;113.28;70.35;;;205.10;2252.80;;;;;;5087462;28;20107;-84
2022/11/15 08:36:32;;;;;;;85.63;55.17;;;205.20;2252.80;;;;;;5076795;28;20024;-84
2022/11/15 08:38:58;;;;;;;74.15;53.38;;;205.30;2252.80;;;;;;5076335;28;20031;-83
2022/11/15 08:41:33;;;;;;;89.07;54.60;;;205.40;2252.80;;;;;;5080770;28;20028;-86
2022/11/15 08:43:59;;;;;;;80.13;53.22;;;205.40;2252.80;;;;;;5087964;28;20020;-85
2022/11/15 08:46:25;;;;;;;82.65;51.17;;;205.50;2252.80;;;;;;5088172;28;20023;-88
2022/11/15 08:48:51;;;;;;;84.47;55.33;;;205.60;2252.80;;;;;;5077255;28;20387;-89
2022/11/15 08:51:16;;;;;;;79.55;49.72;;;205.60;2252.80;;;;;;5076671;28;20460;-85
2022/11/15 08:53:43;;;;;;;82.88;50.38;;;205.70;2252.80;;;;;;5076822;28;20029;-84
2022/11/15 08:56:10;;;;;;;81.60;50.08;;;230.40;2252.80;;;;;;5084470;28;20129;-83
2022/11/15 08:58:36;;;;;;;87.32;52.30;;;230.50;2252.80;;;;;;5084319;28;20467;-82
2022/11/15 09:01:04;;;;;;;75.90;52.63;;;230.60;2252.80;;;;;;5083806;28;20111;-83
2022/11/15 09:03:30;;;;;;;82.40;54.33;;;230.50;2252.80;;;;;;5093727;28;20013;-82
2022/11/15 09:05:57;;;;;;;85.80;52.53;;;230.70;2252.80;;;;;;5110186;28;20048;-82
2022/11/15 09:08:24;;;;;;;87.72;51.78;;;230.60;2252.80;;;;;;5109930;28;20015;-82
2022/11/15 09:10:50;;;;;;;88.68;52.50;;;230.60;2252.80;;;;;;5088413;28;20089;-84
2022/11/15 09:13:16;;;;;;;99.00;65.82;;;230.60;2252.80;;;;;;5088417;28;20020;-86
2022/11/15 09:15:42;;;;;;;94.68;60.88;;;230.90;2252.80;;;;;;5087491;28;20020;-84
2022/11/15 09:18:08;;;;;;;75.90;52.05;;;231.00;2252.80;;;;;;5089425;28;20012;-87
2022/11/15 09:20:33;;;;;;;73.38;47.90;;;231.10;2252.80;;;;;;5087373;28;20476;-85
2022/11/15 09:23:03;;;;;;;63.63;44.25;;;231.20;2252.80;;;;;;5084781;28;20107;-85
2022/11/15 09:25:30;;;;;;;70.28;43.28;;;231.30;2252.80;;;;;;5085243;28;20016;-85
2022/11/15 09:27:56;;;;;;;62.75;41.63;;;256.00;2252.80;;;;;;5080866;28;20543;-83
2022/11/15 09:30:24;;;;;;;63.95;42.28;;;256.10;2252.80;;;;;;5082670;28;20480;-86
2022/11/15 09:32:49;;;;;;;68.70;44.50;;;256.10;2252.80;;;;;;5081721;28;20090;-83
2022/11/15 09:35:15;;;;;;;60.58;40.22;;;256.20;2252.80;;;;;;5093668;28;20452;-84
2022/11/15 09:37:41;;;;;;;60.33;41.97;;;256.10;2252.80;;;;;;5086392;28;20024;-85
2022/11/15 09:40:12;;;;;;;90.47;56.13;;;256.30;2252.80;;;;;;5088662;28;20028;-86
2022/11/15 09:42:41;;;;;;;120.00;70.68;;;256.40;2252.80;;;;;;5084707;28;20027;-84
2022/11/15 09:45:26;;;;;;;95.75;59.78;;;256.50;2252.80;;;;;;5084195;28;20016;-86
2022/11/15 09:48:31;;;;;;;99.43;62.38;;;256.60;2252.80;;;;;;5085777;28;20166;-86
2022/11/15 09:50:59;;;;;;;90.35;57.92;;;256.80;2252.80;;;;;;5086734;28;20029;-85
2022/11/15 09:53:40;;;;;;;55.88;39.92;;;256.90;2252.80;;;;;;5084673;28;20073;-87
2022/11/15 09:56:19;;;;;;;56.60;39.67;;;256.90;2252.80;;;;;;5085799;28;20419;-86
2022/11/15 09:59:10;;;;;;;53.75;36.20;;;256.90;2252.80;;;;;;5082610;28;20098;-82
2022/11/15 10:02:01;;;;;;;57.83;41.28;;;281.60;2278.40;;;;;;5085241;28;20031;-83
2022/11/15 10:04:27;;;;;;;45.78;28.30;;;281.80;2278.40;;;;;;5085221;28;20483;-83
2022/11/15 10:07:05;;;;;;;42.45;30.23;;;281.80;2278.40;;;;;;5082184;28;20024;-85
2022/11/15 10:09:52;;;;;;;40.65;28.10;;;281.90;2278.40;;;;;;5086239;28;20074;-83
2022/11/15 10:12:18;;;;;;;40.80;29.02;;;282.00;2278.40;;;;;;5086442;28;20028;-82
2022/11/15 10:14:46;;;;;;;44.95;31.25;;;282.10;2278.40;;;;;;5074481;28;20029;-83
2022/11/15 10:17:12;;;;;;;47.65;34.47;;;282.10;2278.40;;;;;;5074697;28;20063;-82
2022/11/15 10:20:05;;;;;;;49.33;35.42;;;282.20;2278.40;;;;;;5074420;28;20029;-83
2022/11/15 10:22:47;;;;;;;134.43;39.50;;;282.40;2278.40;;;;;;5074360;28;20028;-83
2022/11/15 10:25:17;;;;;;;56.07;32.43;;;282.50;2278.40;;;;;;5075687;28;20024;-84
2022/11/15 10:27:47;;;;;;;49.65;33.10;;;307.20;2304.00;;;;;;5080882;28;20085;-82
2022/11/15 10:30:16;;;;;;;55.70;32.90;;;307.20;2304.00;;;;;;5074416;28;20392;-83
2022/11/15 10:32:43;;;;;;;50.92;35.75;;;307.30;2304.00;;;;;;5074512;28;20115;-83
2022/11/15 10:35:27;;;;;;;52.45;35.38;;;307.40;2304.00;;;;;;5074296;28;20437;-83
2022/11/15 10:38:05;;;;;;;48.70;33.42;;;307.50;2304.00;;;;;;5074181;28;20024;-82
2022/11/15 10:40:31;;;;;;;43.33;30.77;;;307.50;2304.00;;;;;;5074809;28;20028;-81
2022/11/15 10:43:17;;;;;;;45.38;33.35;;;307.50;2304.00;;;;;;5078451;28;20124;-83
2022/11/15 10:45:43;;;;;;;48.38;34.88;;;307.50;2304.00;;;;;;5073913;28;20056;-83
2022/11/15 10:48:12;;;;;;;46.40;30.00;;;307.70;2304.00;;;;;;5073803;28;20056;-83
2022/11/15 10:50:45;;;;;;;42.20;29.77;;;307.60;2304.00;;;;;;5073853;28;20476;-80
2022/11/15 10:53:26;;;;;;;44.35;31.17;;;307.60;2304.00;;;;;;5073526;28;20032;-80
2022/11/15 10:55:55;;;;;;;48.67;30.42;;;307.60;2304.00;;;;;;5073598;28;20052;-84
2022/11/15 10:58:37;;;;;;;50.70;31.55;;;307.70;2304.00;;;;;;5073775;28;20037;-83
2022/11/15 11:01:15;;;;;;;62.07;45.50;;;307.70;2304.00;;;;;;5073745;28;20024;-85
2022/11/15 11:03:44;;;;;;;67.07;50.75;;;307.60;2304.00;;;;;;5073206;28;20356;-81
2022/11/15 11:06:18;;;;;;;52.35;36.30;;;307.60;2304.00;;;;;;5047415;28;20021;-81
2022/11/15 11:09:05;;;;;;;53.00;38.22;;;307.70;2304.00;;;;;;5047217;28;20040;-83
2022/11/15 11:11:48;;;;;;;48.78;36.53;;;307.70;2304.00;;;;;;5047572;28;20103;-82
2022/11/15 11:14:38;;;;;;;48.97;33.75;;;308.00;2304.00;;;;;;5039318;28;20025;-82
2022/11/15 11:17:22;;;;;;;44.63;30.42;;;307.90;2304.00;;;;;;5026539;28;20040;-82
2022/11/15 11:20:06;;;;;;;41.58;27.85;;;307.90;2304.00;;;;;;5054481;28;20033;-83
2022/11/15 11:23:02;;;;;;;41.78;29.15;;;307.90;2304.00;;;;;;5036437;28;20068;-83
2022/11/15 11:25:47;;;;;;;43.63;31.17;;;308.00;2304.00;;;;;;5036519;28;20020;-81
2022/11/15 11:28:38;;;;;;;46.60;29.95;;;308.00;2304.00;;;;;;5036459;28;20025;-82
2022/11/15 11:31:16;;;;;;;39.78;30.27;;;308.10;2304.00;;;;;;5036250;28;20037;-83
2022/11/15 11:34:01;;;;;;;44.40;30.75;;;308.10;2304.00;;;;;;5036313;28;20461;-81
2022/11/15 11:36:33;;;;;;;40.70;30.33;;;308.10;2304.00;;;;;;5045540;28;20119;-83
2022/11/15 11:39:38;;;;;;;43.05;30.83;;;332.90;2329.60;;;;;;5055957;28;20024;-83
2022/11/15 11:42:23;;;;;;;43.83;31.55;;;332.90;2329.60;;;;;;5055391;28;20539;-82
2022/11/15 11:45:11;;;;;;;53.85;36.65;;;332.90;2329.60;;;;;;5052598;28;20032;-83
2022/11/15 11:48:02;;;;;;;51.83;35.83;;;333.10;2329.60;;;;;;5056096;28;20419;-82
2022/11/15 11:50:28;;;;;;;44.45;33.28;;;333.10;2329.60;;;;;;5054510;28;20040;-83
2022/11/15 11:53:15;;;;;;;47.22;33.90;;;333.10;2329.60;;;;;;5056323;28;20028;-83
2022/11/15 11:55:48;;;;;;;53.97;40.03;;;333.20;2329.60;;;;;;5056103;28;20029;-82
2022/11/15 11:58:22;;;;;;;56.30;39.28;;;333.20;2329.60;;;;;;5043636;28;20043;-83
2022/11/15 12:01:01;;;;;;;55.78;38.58;;;333.40;2329.60;;;;;;5046301;28;20036;-81
2022/11/15 12:03:45;;;;;;;54.78;35.97;;;333.50;2329.60;;;;;;5055861;28;20052;-81
2022/11/15 12:06:40;;;;;;;44.97;32.85;;;333.60;2329.60;;;;;;5055802;28;20093;-84
2022/11/15 12:09:14;;;;;;;50.53;36.25;;;333.70;2329.60;;;;;;5055981;28;20078;-83
2022/11/15 12:12:09;;;;;;;49.38;35.92;;;333.70;2329.60;;;;;;5056106;28;20028;-82
2022/11/15 12:14:54;;;;;;;52.63;37.33;;;333.70;2329.60;;;;;;5072965;28;20496;-84
2022/11/15 12:17:24;;;;;;;39.33;28.55;;;333.70;2329.60;;;;;;5055353;28;20025;-82
2022/11/15 12:19:55;;;;;;;47.10;31.35;;;333.70;2329.60;;;;;;5049585;28;20472;-83
2022/11/15 12:22:43;;;;;;;40.45;30.08;;;333.70;2329.60;;;;;;5065760;28;20383;-83
2022/11/15 12:25:24;;;;;;;43.05;31.23;;;333.70;2329.60;;;;;;5002763;28;20037;-84
2022/11/15 12:28:02;;;;;;;43.83;30.40;;;333.70;2329.60;;;;;;5035936;28;20032;-83
2022/11/15 12:30:45;;;;;;;42.92;33.20;;;358.40;2329.60;;;;;;5053236;28;20052;-83
2022/11/15 12:33:30;;;;;;;48.33;35.55;;;358.50;2329.60;;;;;;5053521;28;20025;-83
2022/11/15 12:36:21;;;;;;;52.95;38.53;;;358.50;2329.60;;;;;;5035623;28;20020;-80
2022/11/15 12:38:55;;;;;;;49.25;34.85;;;358.60;2329.60;;;;;;5024319;28;20503;-81
2022/11/15 12:41:24;;;;;;;48.45;36.92;;;358.60;2329.60;;;;;;5035625;28;20122;-82
2022/11/15 12:43:50;;;;;;;46.63;34.67;;;358.50;2329.60;;;;;;5035662;28;20029;-81
2022/11/15 12:47:02;;;;;;;49.88;37.10;;;359.00;2329.60;;;;;;5067896;28;20031;-82
2022/11/15 12:49:28;;;;;;;53.28;37.95;;;358.60;2329.60;;;;;;5074241;28;20551;-82
2022/11/15 12:51:57;;;;;;;48.65;37.95;;;358.70;2329.60;;;;;;5075594;28;20143;-83
2022/11/15 12:54:22;;;;;;;53.75;39.05;;;358.60;2329.60;;;;;;5075439;28;20543;-83
2022/11/15 12:57:03;;;;;;;42.45;31.20;;;358.60;2329.60;;;;;;5066882;28;20076;-82
2022/11/15 12:59:57;;;;;;;45.85;33.95;;;358.60;2329.60;;;;;;5039593;28;20464;-82
2022/11/15 13:02:35;;;;;;;46.33;32.47;;;358.70;2329.60;;;;;;5035513;28;20472;-81